createdAt,value
2023-05-14T00:00:34.784Z,6.35
2023-05-14T00:01:36.539Z,6.36
2023-05-14T00:02:39.542Z,6.36
2023-05-14T00:03:41.584Z,6.33
2023-05-14T00:04:44.413Z,6.32
2023-05-14T00:05:46.197Z,6.29
2023-05-14T00:06:50.282Z,6.29
2023-05-14T00:07:52.032Z,6.27
2023-05-14T00:08:54.788Z,6.25
2023-05-14T00:09:56.556Z,6.22
2023-05-14T00:10:59.270Z,6.19
2023-05-14T00:12:01.196Z,6.17
2023-05-14T00:13:04.040Z,6.13
2023-05-14T00:14:05.924Z,6.10
2023-05-14T00:15:09.867Z,6.05
2023-05-14T00:16:11.915Z,5.99
2023-05-14T00:17:14.644Z,5.98
2023-05-14T00:18:16.458Z,5.96
2023-05-14T00:19:19.246Z,5.93
2023-05-14T00:21:23.974Z,5.88
2023-05-14T00:22:27.095Z,5.88
2023-05-14T00:23:29.820Z,5.90
2023-05-14T00:24:31.681Z,5.92
2023-05-14T00:25:34.414Z,5.94
2023-05-14T00:26:37.146Z,5.96
2023-05-14T00:27:39.400Z,5.96
2023-05-14T00:28:42.176Z,5.97
2023-05-14T00:29:45.606Z,5.99
2023-05-14T00:30:48.442Z,6.02
2023-05-14T00:31:50.969Z,6.03
2023-05-14T00:32:53.921Z,6.05
2023-05-14T00:33:55.831Z,6.02
2023-05-14T00:34:58.793Z,6.00
2023-05-14T00:36:00.776Z,5.99
2023-05-14T00:37:03.587Z,5.98
2023-05-14T00:38:06.708Z,5.95
2023-05-14T00:39:09.469Z,5.93
2023-05-14T00:40:12.954Z,5.90
2023-05-14T00:41:15.863Z,5.88
2023-05-14T00:42:17.878Z,5.87
2023-05-14T00:43:21.113Z,5.85
2023-05-14T00:44:23.027Z,5.83
2023-05-14T00:45:25.962Z,5.83
2023-05-14T00:46:27.864Z,5.83
2023-05-14T00:47:30.788Z,5.82
2023-05-14T00:48:32.693Z,5.81
2023-05-14T00:49:35.555Z,5.83
2023-05-14T00:50:37.480Z,5.86
2023-05-14T00:51:41.455Z,5.89
2023-05-14T00:52:43.435Z,5.92
2023-05-14T00:53:47.821Z,5.93
2023-05-14T00:54:49.729Z,5.92
2023-05-14T00:55:53.443Z,5.93
2023-05-14T00:56:55.861Z,5.96
2023-05-14T00:57:59.216Z,5.98
2023-05-14T00:59:01.448Z,6.02
2023-05-14T01:00:05.381Z,6.04
2023-05-14T01:01:07.340Z,6.07
2023-05-14T01:02:10.248Z,6.10
2023-05-14T01:03:12.116Z,6.10
2023-05-14T01:04:14.969Z,6.12
2023-05-14T01:05:16.974Z,6.14
2023-05-14T01:06:24.525Z,6.16
2023-05-14T01:07:30.706Z,6.16
2023-05-14T01:08:54.662Z,6.17
2023-05-14T01:10:01.556Z,6.15
2023-05-14T01:11:07.831Z,6.12
2023-05-14T01:12:16.320Z,6.14
2023-05-14T01:13:25.327Z,6.11
2023-05-14T01:14:34.379Z,6.10
2023-05-14T01:15:38.767Z,6.11
2023-05-14T01:16:40.794Z,6.12
2023-05-14T01:17:46.239Z,6.14
2023-05-14T01:18:51.042Z,6.15
2023-05-14T01:19:54.928Z,6.13
2023-05-14T01:20:56.806Z,6.11
2023-05-14T01:22:00.907Z,6.07
2023-05-14T01:23:03.150Z,6.03
2023-05-14T01:24:06.475Z,5.96
2023-05-14T01:25:09.053Z,5.91
2023-05-14T01:26:11.798Z,5.87
2023-05-14T01:27:18.550Z,5.84
2023-05-14T01:28:23.993Z,5.80
2023-05-14T01:29:27.105Z,5.77
2023-05-14T01:30:32.860Z,5.77
2023-05-14T01:31:36.833Z,5.76
2023-05-14T01:32:40.657Z,5.74
2023-05-14T01:33:43.414Z,5.70
2023-05-14T01:34:48.078Z,5.66
2023-05-14T01:35:49.900Z,5.62
2023-05-14T01:36:53.383Z,5.60
2023-05-14T01:37:58.139Z,5.58
2023-05-14T01:39:01.769Z,5.56
2023-05-14T01:40:04.427Z,5.55
2023-05-14T01:41:07.792Z,5.56
2023-05-14T01:42:10.469Z,5.59
2023-05-14T01:43:13.540Z,5.61
2023-05-14T01:44:16.180Z,5.62
2023-05-14T01:45:19.191Z,5.64
2023-05-14T01:46:21.070Z,5.68
2023-05-14T01:47:23.915Z,5.73
2023-05-14T01:48:25.863Z,5.77
2023-05-14T01:49:28.781Z,5.82
2023-05-14T01:50:30.585Z,5.87
2023-05-14T01:51:33.412Z,5.90
2023-05-14T01:52:35.440Z,5.95
2023-05-14T01:53:39.474Z,5.98
2023-05-14T01:54:41.370Z,6.00
2023-05-14T01:55:44.146Z,5.99
2023-05-14T01:56:46.087Z,5.99
2023-05-14T01:57:48.811Z,6.00
2023-05-14T01:58:50.797Z,6.04
2023-05-14T01:59:53.576Z,6.08
2023-05-14T02:00:55.333Z,6.13
2023-05-14T02:03:40.381Z,6.18
2023-05-14T02:04:42.365Z,6.23
2023-05-14T02:05:45.184Z,6.27
2023-05-14T02:06:46.980Z,6.30
2023-05-14T02:07:49.833Z,6.33
2023-05-14T02:08:52.994Z,6.37
2023-05-14T02:09:55.715Z,6.39
2023-05-14T02:10:57.573Z,6.41
2023-05-14T02:12:00.758Z,6.42
2023-05-14T02:13:09.667Z,6.41
2023-05-14T02:14:12.470Z,6.38
2023-05-14T02:15:14.412Z,6.37
2023-05-14T02:16:17.272Z,6.37
2023-05-14T02:17:19.744Z,6.36
2023-05-14T02:18:22.493Z,6.35
2023-05-14T02:19:24.481Z,6.34
2023-05-14T02:20:27.237Z,6.31
2023-05-14T02:21:29.000Z,6.30
2023-05-14T02:22:31.738Z,6.29
2023-05-14T02:23:41.035Z,6.27
2023-05-14T02:24:45.945Z,6.25
2023-05-14T02:25:47.702Z,6.23
2023-05-14T02:26:50.462Z,6.22
2023-05-14T02:27:52.226Z,6.21
2023-05-14T02:28:55.005Z,6.19
2023-05-14T02:30:00.587Z,6.16
2023-05-14T02:31:03.495Z,6.13
2023-05-14T02:32:05.957Z,6.10
2023-05-14T02:33:08.931Z,6.04
2023-05-14T02:34:11.010Z,5.94
2023-05-14T02:35:13.787Z,5.85
2023-05-14T02:36:16.066Z,5.76
2023-05-14T02:37:18.807Z,5.69
2023-05-14T02:38:20.631Z,5.63
2023-05-14T02:39:24.994Z,5.57
2023-05-14T02:40:28.141Z,5.51
2023-05-14T02:41:30.917Z,5.44
2023-05-14T02:42:32.806Z,5.36
2023-05-14T02:43:35.576Z,5.26
2023-05-14T02:44:37.583Z,5.18
2023-05-14T02:45:40.328Z,5.12
2023-05-14T02:46:42.730Z,5.06
2023-05-14T02:47:45.914Z,5.00
2023-05-14T02:48:50.883Z,4.95
2023-05-14T02:49:54.096Z,4.92
2023-05-14T02:50:55.998Z,4.86
2023-05-14T02:52:00.769Z,4.82
2023-05-14T02:53:02.598Z,4.76
2023-05-14T02:54:05.541Z,4.73
2023-05-14T02:55:08.178Z,4.69
2023-05-14T02:56:12.290Z,4.64
2023-05-14T02:57:14.082Z,4.60
2023-05-14T02:58:17.025Z,4.53
2023-05-14T02:59:18.863Z,4.47
2023-05-14T03:00:22.669Z,4.40
2023-05-14T03:01:25.080Z,4.34
2023-05-14T03:02:28.581Z,4.30
2023-05-14T03:03:31.352Z,4.26
2023-05-14T03:04:34.810Z,4.21
2023-05-14T03:05:36.737Z,4.16
2023-05-14T03:06:39.685Z,4.12
2023-05-14T03:07:41.514Z,4.07
2023-05-14T03:08:44.268Z,4.05
2023-05-14T03:09:46.109Z,4.00
2023-05-14T03:10:48.909Z,3.99
2023-05-14T03:11:52.028Z,3.96
2023-05-14T03:12:54.842Z,3.95
2023-05-14T03:13:56.886Z,3.96
2023-05-14T03:14:59.663Z,3.95
2023-05-14T03:16:01.467Z,3.93
2023-05-14T03:17:04.500Z,3.93
2023-05-14T03:18:06.620Z,3.92
2023-05-14T03:19:09.839Z,3.93
2023-05-14T03:20:13.125Z,3.92
2023-05-14T03:21:15.931Z,3.93
2023-05-14T03:22:18.502Z,3.94
2023-05-14T03:23:21.732Z,3.96
2023-05-14T03:24:23.604Z,3.98
2023-05-14T03:25:26.514Z,4.00
2023-05-14T03:26:28.395Z,4.03
2023-05-14T03:27:33.599Z,4.06
2023-05-14T03:28:35.398Z,4.07
2023-05-14T03:29:38.188Z,4.09
2023-05-14T03:30:40.076Z,4.10
2023-05-14T03:31:43.383Z,4.13
2023-05-14T03:32:45.552Z,4.13
2023-05-14T03:33:48.418Z,4.12
2023-05-14T03:34:50.223Z,4.09
2023-05-14T03:35:53.072Z,4.08
2023-05-14T03:36:57.238Z,4.09
2023-05-14T03:37:59.378Z,4.12
2023-05-14T03:39:03.095Z,4.13
2023-05-14T03:40:06.405Z,4.15
2023-05-14T03:41:09.610Z,4.16
2023-05-14T03:42:11.451Z,4.20
2023-05-14T03:43:16.274Z,4.26
2023-05-14T03:44:18.384Z,4.29
2023-05-14T03:45:21.526Z,4.33
2023-05-14T03:46:23.318Z,4.39
2023-05-14T03:47:26.232Z,4.46
2023-05-14T03:48:28.454Z,4.54
2023-05-14T03:49:31.398Z,4.61
2023-05-14T03:50:33.381Z,4.70
2023-05-14T03:51:36.254Z,4.80
2023-05-14T03:52:41.247Z,4.91
2023-05-14T03:53:44.148Z,5.06
2023-05-14T03:54:47.748Z,5.22
2023-05-14T03:55:51.603Z,5.39
2023-05-14T03:56:53.420Z,5.53
2023-05-14T03:57:56.276Z,5.71
2023-05-14T03:58:59.412Z,5.93
2023-05-14T04:00:02.207Z,6.15
2023-05-14T04:01:04.320Z,6.33
2023-05-14T04:02:07.114Z,6.52
2023-05-14T04:03:09.172Z,6.72
2023-05-14T04:04:12.136Z,6.84
2023-05-14T04:05:14.098Z,6.92
2023-05-14T04:06:16.944Z,7.00
2023-05-14T04:07:18.823Z,7.08
2023-05-14T04:08:21.630Z,7.19
2023-05-14T04:09:24.442Z,7.35
2023-05-14T04:10:27.293Z,7.48
2023-05-14T04:11:29.221Z,7.61
2023-05-14T04:12:31.955Z,7.79
2023-05-14T04:13:34.104Z,8.02
2023-05-14T04:14:38.213Z,8.25
2023-05-14T04:15:40.141Z,8.47
2023-05-14T04:16:43.637Z,8.69
2023-05-14T04:17:45.923Z,8.89
2023-05-14T04:18:48.989Z,9.09
2023-05-14T04:19:51.040Z,9.30
2023-05-14T04:20:54.185Z,9.51
2023-05-14T04:21:56.028Z,9.72
2023-05-14T04:22:58.958Z,9.91
2023-05-14T04:24:00.884Z,10.07
2023-05-14T04:25:03.653Z,10.20
2023-05-14T04:26:05.530Z,10.30
2023-05-14T04:27:08.365Z,10.42
2023-05-14T04:28:10.582Z,10.53
2023-05-14T04:29:13.499Z,10.64
2023-05-14T04:30:16.846Z,10.69
2023-05-14T04:31:19.766Z,10.76
2023-05-14T04:32:22.514Z,10.82
2023-05-14T04:33:25.663Z,10.92
2023-05-14T04:34:27.465Z,10.98
2023-05-14T04:35:32.081Z,11.04
2023-05-14T04:36:33.989Z,11.06
2023-05-14T04:37:36.804Z,11.06
2023-05-14T04:38:38.762Z,11.04
2023-05-14T04:39:41.705Z,10.99
2023-05-14T04:40:43.808Z,10.92
2023-05-14T04:41:46.708Z,10.87
2023-05-14T04:42:48.637Z,10.87
2023-05-14T04:43:51.719Z,10.88
2023-05-14T04:44:53.743Z,10.85
2023-05-14T04:45:58.025Z,10.81
2023-05-14T04:46:59.968Z,10.73
2023-05-14T04:48:03.667Z,10.62
2023-05-14T04:49:05.499Z,10.52
2023-05-14T04:50:09.928Z,10.44
2023-05-14T04:51:11.750Z,10.40
2023-05-14T04:52:14.527Z,10.36
2023-05-14T04:53:16.358Z,10.33
2023-05-14T04:54:19.244Z,10.31
2023-05-14T04:55:21.205Z,10.29
2023-05-14T04:56:23.941Z,10.28
2023-05-14T04:57:25.755Z,10.28
2023-05-14T04:58:29.219Z,10.29
2023-05-14T04:59:31.008Z,10.30
2023-05-14T05:00:34.018Z,10.32
2023-05-14T05:01:37.286Z,10.35
2023-05-14T05:02:40.177Z,10.43
2023-05-14T05:03:42.375Z,10.54
2023-05-14T05:04:45.350Z,10.61
2023-05-14T05:05:47.087Z,10.65
2023-05-14T05:06:49.994Z,10.69
2023-05-14T05:07:51.770Z,10.72
2023-05-14T05:08:54.705Z,10.77
2023-05-14T05:09:56.821Z,10.78
2023-05-14T05:10:59.819Z,10.81
2023-05-14T05:12:01.951Z,10.83
2023-05-14T05:13:04.940Z,10.85
2023-05-14T05:14:06.920Z,10.88
2023-05-14T05:15:10.698Z,10.95
2023-05-14T05:16:12.674Z,11.07
2023-05-14T05:17:17.384Z,11.19
2023-05-14T05:18:19.870Z,11.31
2023-05-14T05:19:35.727Z,11.39
2023-05-14T05:20:42.879Z,11.42
2023-05-14T05:21:44.675Z,11.47
2023-05-14T05:22:47.872Z,11.52
2023-05-14T05:23:50.085Z,11.63
2023-05-14T05:24:53.405Z,11.78
2023-05-14T05:25:55.353Z,11.97
2023-05-14T05:26:58.324Z,12.19
2023-05-14T05:28:00.261Z,12.44
2023-05-14T05:29:04.670Z,12.72
2023-05-14T05:30:08.368Z,13.00
2023-05-14T05:31:11.567Z,13.20
2023-05-14T05:32:13.732Z,13.42
2023-05-14T05:33:17.967Z,13.65
2023-05-14T05:34:20.994Z,13.92
2023-05-14T05:35:24.014Z,14.17
2023-05-14T05:36:26.307Z,14.38
2023-05-14T05:37:29.263Z,14.57
2023-05-14T05:38:31.143Z,14.79
2023-05-14T05:39:35.134Z,14.99
2023-05-14T05:40:37.168Z,15.25
2023-05-14T05:41:40.638Z,15.46
2023-05-14T05:42:42.706Z,15.66
2023-05-14T05:43:45.672Z,15.82
2023-05-14T05:44:47.914Z,15.87
2023-05-14T05:45:51.720Z,15.92
2023-05-14T05:46:57.524Z,15.98
2023-05-14T05:48:00.914Z,16.03
2023-05-14T05:49:04.213Z,16.10
2023-05-14T05:50:08.760Z,16.16
2023-05-14T05:51:11.728Z,16.20
2023-05-14T05:52:14.653Z,16.26
2023-05-14T05:53:16.708Z,16.29
2023-05-14T05:54:19.625Z,16.28
2023-05-14T05:55:21.810Z,16.27
2023-05-14T05:56:25.027Z,16.31
2023-05-14T05:57:27.384Z,16.36
2023-05-14T05:58:30.385Z,16.40
2023-05-14T05:59:32.291Z,16.44
2023-05-14T06:00:35.180Z,16.47
2023-05-14T06:01:37.063Z,16.55
2023-05-14T06:02:40.338Z,16.64
2023-05-14T06:03:42.428Z,16.74
2023-05-14T06:04:46.790Z,16.88
2023-05-14T06:05:49.132Z,16.96
2023-05-14T06:06:52.113Z,17.06
2023-05-14T06:07:54.376Z,17.14
2023-05-14T06:08:57.238Z,17.20
2023-05-14T06:09:59.074Z,17.22
2023-05-14T06:11:01.860Z,17.24
2023-05-14T06:12:04.899Z,17.28
2023-05-14T06:13:07.961Z,17.42
2023-05-14T06:14:09.814Z,17.54
2023-05-14T06:15:13.301Z,17.69
2023-05-14T06:16:16.204Z,17.79
2023-05-14T06:17:18.220Z,17.87
2023-05-14T06:18:21.244Z,17.90
2023-05-14T06:19:23.172Z,18.02
2023-05-14T06:20:27.362Z,18.12
2023-05-14T06:21:30.155Z,18.22
2023-05-14T06:22:32.073Z,18.37
2023-05-14T06:23:34.798Z,18.56
2023-05-14T06:24:36.650Z,18.74
2023-05-14T06:25:39.432Z,18.80
2023-05-14T06:26:41.179Z,18.80
2023-05-14T06:27:43.969Z,18.82
2023-05-14T06:28:45.834Z,18.82
2023-05-14T06:29:48.980Z,18.87
2023-05-14T06:30:51.118Z,18.94
2023-05-14T06:31:54.043Z,19.05
2023-05-14T06:32:55.990Z,19.17
2023-05-14T06:33:58.834Z,19.36
2023-05-14T06:35:00.892Z,19.49
2023-05-14T06:36:07.435Z,19.54
2023-05-14T06:37:10.479Z,19.49
2023-05-14T06:38:12.396Z,19.34
2023-05-14T06:39:15.187Z,19.04
2023-05-14T06:40:17.582Z,18.79
2023-05-14T06:41:21.216Z,18.58
2023-05-14T06:42:23.036Z,18.43
2023-05-14T06:43:25.986Z,18.40
2023-05-14T06:44:28.377Z,18.49
2023-05-14T06:45:33.138Z,18.59
2023-05-14T06:46:35.307Z,18.71
2023-05-14T06:47:38.226Z,18.77
2023-05-14T06:48:40.167Z,18.88
2023-05-14T06:49:42.947Z,19.10
2023-05-14T06:50:45.360Z,19.26
2023-05-14T06:51:49.779Z,19.35
2023-05-14T06:52:51.620Z,19.44
2023-05-14T06:53:54.636Z,19.54
2023-05-14T06:54:56.559Z,19.59
2023-05-14T06:55:59.511Z,19.59
2023-05-14T06:57:01.472Z,19.65
2023-05-14T06:58:04.234Z,19.62
2023-05-14T06:59:06.076Z,19.60
2023-05-14T07:00:09.976Z,19.61
2023-05-14T07:01:11.816Z,19.69
2023-05-14T07:02:14.616Z,19.79
2023-05-14T07:03:16.426Z,19.86
2023-05-14T07:04:19.646Z,20.01
2023-05-14T07:05:21.432Z,20.19
2023-05-14T07:06:24.580Z,20.29
2023-05-14T07:07:28.199Z,20.27
2023-05-14T07:08:31.142Z,20.22
2023-05-14T07:09:33.284Z,20.11
2023-05-14T07:10:36.456Z,20.05
2023-05-14T07:11:38.310Z,19.98
2023-05-14T07:12:41.154Z,19.93
2023-05-14T07:13:43.011Z,20.05
2023-05-14T07:14:46.646Z,20.17
2023-05-14T07:15:49.471Z,20.26
2023-05-14T07:16:51.313Z,20.29
2023-05-14T07:17:54.116Z,20.32
2023-05-14T07:18:56.110Z,20.35
2023-05-14T07:19:59.167Z,20.42
2023-05-14T07:21:00.993Z,20.45
2023-05-14T07:22:03.881Z,20.50
2023-05-14T07:23:08.075Z,20.61
2023-05-14T07:24:09.867Z,20.80
2023-05-14T07:25:12.765Z,20.91
2023-05-14T07:26:15.529Z,21.08
2023-05-14T07:27:17.405Z,21.20
2023-05-14T07:28:20.186Z,21.21
2023-05-14T07:29:22.049Z,21.16
2023-05-14T07:30:25.629Z,21.10
2023-05-14T07:31:27.812Z,21.03
2023-05-14T07:32:30.612Z,21.00
2023-05-14T07:33:33.519Z,20.98
2023-05-14T07:34:35.532Z,21.04
2023-05-14T07:35:38.504Z,21.12
2023-05-14T07:36:40.980Z,21.21
2023-05-14T07:37:43.902Z,21.24
2023-05-14T07:38:47.997Z,21.29
2023-05-14T07:39:49.851Z,21.38
2023-05-14T07:40:52.759Z,21.48
2023-05-14T07:41:54.821Z,21.52
2023-05-14T07:42:57.703Z,21.48
2023-05-14T07:43:59.563Z,21.46
2023-05-14T07:45:02.400Z,21.51
2023-05-14T07:46:04.355Z,21.42
2023-05-14T07:47:08.682Z,21.42
2023-05-14T07:48:11.283Z,21.48
2023-05-14T07:49:14.061Z,21.43
2023-05-14T07:50:16.495Z,21.36
2023-05-14T07:51:19.357Z,21.35
2023-05-14T07:52:22.155Z,21.37
2023-05-14T07:53:24.893Z,21.46
2023-05-14T07:54:28.976Z,21.45
2023-05-14T07:55:30.758Z,21.44
2023-05-14T07:56:34.059Z,21.47
2023-05-14T07:57:35.852Z,21.49
2023-05-14T07:58:38.675Z,21.58
2023-05-14T07:59:40.713Z,21.61
2023-05-14T08:00:43.550Z,21.77
2023-05-14T08:01:45.452Z,21.88
2023-05-14T08:02:50.299Z,22.00
2023-05-14T08:03:52.285Z,22.03
2023-05-14T08:04:55.320Z,22.12
2023-05-14T08:05:57.215Z,22.18
2023-05-14T08:07:00.020Z,22.26
2023-05-14T08:08:01.779Z,22.34
2023-05-14T08:09:05.363Z,22.38
2023-05-14T08:10:09.445Z,22.46
2023-05-14T08:11:12.391Z,22.52
2023-05-14T08:12:14.286Z,22.66
2023-05-14T08:13:17.081Z,22.76
2023-05-14T08:14:18.822Z,22.90
2023-05-14T08:15:21.831Z,22.86
2023-05-14T08:16:24.855Z,22.84
2023-05-14T08:17:27.853Z,22.93
2023-05-14T08:18:29.886Z,23.01
2023-05-14T08:19:32.719Z,23.01
2023-05-14T08:20:34.508Z,23.01
2023-05-14T08:21:37.272Z,23.12
2023-05-14T08:22:39.037Z,23.29
2023-05-14T08:23:41.822Z,23.49
2023-05-14T08:24:43.610Z,23.58
2023-05-14T08:25:47.672Z,23.61
2023-05-14T08:26:49.489Z,23.64
2023-05-14T08:27:54.124Z,23.64
2023-05-14T08:28:56.868Z,23.49
2023-05-14T08:29:58.649Z,23.56
2023-05-14T08:31:01.446Z,23.61
2023-05-14T08:32:11.751Z,23.58
2023-05-14T08:33:22.506Z,23.58
2023-05-14T08:34:26.012Z,23.66
2023-05-14T08:35:27.791Z,23.75
2023-05-14T08:36:31.495Z,23.90
2023-05-14T08:37:33.321Z,23.98
2023-05-14T08:38:36.138Z,24.06
2023-05-14T08:39:37.895Z,24.22
2023-05-14T08:40:40.957Z,24.48
2023-05-14T08:41:46.168Z,24.60
2023-05-14T08:42:48.331Z,24.77
2023-05-14T08:43:58.121Z,24.89
2023-05-14T08:45:01.646Z,24.86
2023-05-14T08:46:06.118Z,24.77
2023-05-14T08:47:08.287Z,24.82
2023-05-14T08:48:13.922Z,24.83
2023-05-14T08:49:21.852Z,24.82
2023-05-14T08:50:25.613Z,24.80
2023-05-14T08:51:27.844Z,24.87
2023-05-14T08:52:30.764Z,24.81
2023-05-14T08:53:32.596Z,24.75
2023-05-14T08:54:35.670Z,24.75
2023-05-14T08:55:37.799Z,24.82
2023-05-14T08:56:41.722Z,24.91
2023-05-14T08:57:44.890Z,24.80
2023-05-14T08:58:47.661Z,24.69
2023-05-14T08:59:49.485Z,24.73
2023-05-14T09:00:52.559Z,24.81
2023-05-14T09:01:54.739Z,25.02
2023-05-14T09:02:58.384Z,25.09
2023-05-14T09:04:01.553Z,25.15
2023-05-14T09:05:04.811Z,25.31
2023-05-14T09:06:06.998Z,25.41
2023-05-14T09:07:09.722Z,25.45
2023-05-14T09:08:11.636Z,25.43
2023-05-14T09:09:14.668Z,25.33
2023-05-14T09:10:17.389Z,25.32
2023-05-14T09:11:20.138Z,25.34
2023-05-14T09:12:22.255Z,25.47
2023-05-14T09:13:28.196Z,25.51
2023-05-14T09:14:30.207Z,25.62
2023-05-14T09:15:34.403Z,25.72
2023-05-14T09:16:37.004Z,25.83
2023-05-14T09:17:40.354Z,25.87
2023-05-14T09:18:43.920Z,25.90
2023-05-14T09:19:49.140Z,25.98
2023-05-14T09:20:52.239Z,26.04
2023-05-14T09:21:56.785Z,25.93
2023-05-14T09:23:01.688Z,25.79
2023-05-14T09:24:03.955Z,25.68
2023-05-14T09:25:09.360Z,25.62
2023-05-14T09:26:11.862Z,25.62
2023-05-14T09:27:21.289Z,25.69
2023-05-14T09:28:23.185Z,25.61
2023-05-14T09:29:28.376Z,25.58
2023-05-14T09:30:30.602Z,25.67
2023-05-14T09:31:34.824Z,25.65
2023-05-14T09:32:38.305Z,25.73
2023-05-14T09:33:41.231Z,25.80
2023-05-14T09:34:43.027Z,25.93
2023-05-14T09:35:45.822Z,26.16
2023-05-14T09:36:47.625Z,26.38
2023-05-14T09:37:51.926Z,26.42
2023-05-14T09:38:53.692Z,26.30
2023-05-14T09:39:56.439Z,26.16
2023-05-14T09:40:58.732Z,26.20
2023-05-14T09:42:01.478Z,26.35
2023-05-14T09:43:04.192Z,26.38
2023-05-14T09:44:06.734Z,26.38
2023-05-14T09:45:11.868Z,26.40
2023-05-14T09:46:14.890Z,26.27
2023-05-14T09:47:16.845Z,26.10
2023-05-14T09:48:19.767Z,25.91
2023-05-14T09:49:21.599Z,25.75
2023-05-14T09:50:26.350Z,25.65
2023-05-14T09:51:29.987Z,25.63
2023-05-14T09:52:32.914Z,25.65
2023-05-14T09:53:35.537Z,25.83
2023-05-14T09:54:38.382Z,26.07
2023-05-14T09:55:40.326Z,26.33
2023-05-14T09:56:44.330Z,26.57
2023-05-14T09:57:47.273Z,26.63
2023-05-14T09:58:49.423Z,26.78
2023-05-14T09:59:52.180Z,26.99
2023-05-14T10:00:57.574Z,27.13
2023-05-14T10:02:00.640Z,27.19
2023-05-14T10:03:06.861Z,27.04
2023-05-14T10:04:10.775Z,26.81
2023-05-14T10:05:13.359Z,26.63
2023-05-14T10:06:18.132Z,26.49
2023-05-14T10:07:23.125Z,26.52
2023-05-14T10:08:28.281Z,26.53
2023-05-14T10:09:30.312Z,26.63
2023-05-14T10:10:33.779Z,26.62
2023-05-14T10:11:38.198Z,26.53
2023-05-14T10:12:41.786Z,26.47
2023-05-14T10:13:47.445Z,26.62
2023-05-14T10:14:53.244Z,26.70
2023-05-14T10:16:10.261Z,26.80
2023-05-14T10:17:18.307Z,26.93
2023-05-14T10:18:24.215Z,27.06
2023-05-14T10:19:26.612Z,27.07
2023-05-14T10:20:29.860Z,27.14
2023-05-14T10:21:34.415Z,27.19
2023-05-14T10:22:37.230Z,27.21
2023-05-14T10:23:40.551Z,27.22
2023-05-14T10:24:42.738Z,27.26
2023-05-14T10:25:45.850Z,27.36
2023-05-14T10:26:47.914Z,27.17
2023-05-14T10:27:50.698Z,26.94
2023-05-14T10:28:53.063Z,26.58
2023-05-14T10:29:56.689Z,26.26
2023-05-14T10:31:00.879Z,26.12
2023-05-14T10:32:06.081Z,25.93
2023-05-14T10:33:09.248Z,25.73
2023-05-14T10:34:32.265Z,25.64
2023-05-14T10:35:56.650Z,25.67
2023-05-14T10:36:59.714Z,25.88
2023-05-14T10:38:02.473Z,25.97
2023-05-14T10:39:05.355Z,26.06
2023-05-14T10:40:09.946Z,25.96
2023-05-14T10:41:14.929Z,25.85
2023-05-14T10:42:18.672Z,25.80
2023-05-14T10:43:21.868Z,25.80
2023-05-14T10:44:23.844Z,25.83
2023-05-14T10:45:28.490Z,25.92
2023-05-14T10:46:31.820Z,25.84
2023-05-14T10:47:35.616Z,25.71
2023-05-14T10:48:38.864Z,25.68
2023-05-14T10:49:44.044Z,25.69
2023-05-14T10:50:48.038Z,25.64
2023-05-14T10:51:54.020Z,25.52
2023-05-14T10:52:57.060Z,25.36
2023-05-14T10:54:01.983Z,25.27
2023-05-14T10:55:07.742Z,25.24
2023-05-14T10:56:12.146Z,25.23
2023-05-14T10:57:14.086Z,25.33
2023-05-14T10:58:17.075Z,25.29
2023-05-14T10:59:18.807Z,25.22
2023-05-14T11:00:21.615Z,25.28
2023-05-14T11:01:24.125Z,25.41
2023-05-14T11:02:29.305Z,25.56
2023-05-14T11:03:31.562Z,25.71
2023-05-14T11:04:34.859Z,25.71
2023-05-14T11:05:38.711Z,25.64
2023-05-14T11:06:41.500Z,25.56
2023-05-14T11:07:45.798Z,25.55
2023-05-14T11:08:47.849Z,25.39
2023-05-14T11:09:51.912Z,25.24
2023-05-14T11:10:56.130Z,25.08
2023-05-14T11:11:57.933Z,24.96
2023-05-14T11:13:00.777Z,24.78
2023-05-14T11:14:02.617Z,24.68
2023-05-14T11:15:07.439Z,24.69
2023-05-14T11:16:21.801Z,24.84
2023-05-14T11:17:28.130Z,24.99
2023-05-14T11:18:30.977Z,25.08
2023-05-14T11:19:33.768Z,25.12
2023-05-14T11:20:36.985Z,25.17
2023-05-14T11:21:39.214Z,25.18
2023-05-14T11:22:43.063Z,25.09
2023-05-14T11:23:46.666Z,24.98
2023-05-14T11:24:49.812Z,24.91
2023-05-14T11:25:53.076Z,24.88
2023-05-14T11:26:55.765Z,24.93
2023-05-14T11:28:00.756Z,24.89
2023-05-14T11:29:02.569Z,24.79
2023-05-14T11:30:06.620Z,24.77
2023-05-14T11:31:08.412Z,24.78
2023-05-14T11:32:11.264Z,24.69
2023-05-14T11:33:15.437Z,24.64
2023-05-14T11:34:18.251Z,24.48
2023-05-14T11:35:20.053Z,24.38
2023-05-14T11:36:23.160Z,24.37
2023-05-14T11:37:24.967Z,24.39
2023-05-14T11:38:27.686Z,24.36
2023-05-14T11:39:29.565Z,24.37
2023-05-14T11:40:32.338Z,24.34
2023-05-14T11:41:34.240Z,24.26
2023-05-14T11:42:37.579Z,24.26
2023-05-14T11:43:39.435Z,24.24
2023-05-14T11:44:44.367Z,24.19
2023-05-14T11:45:51.231Z,24.18
2023-05-14T11:46:57.950Z,24.14
2023-05-14T11:47:59.762Z,24.15
2023-05-14T11:49:05.121Z,24.13
2023-05-14T11:50:09.392Z,24.12
2023-05-14T11:51:12.993Z,24.13
2023-05-14T11:52:16.037Z,24.22
2023-05-14T11:53:19.904Z,24.35
2023-05-14T11:54:21.641Z,24.57
2023-05-14T11:55:24.427Z,24.88
2023-05-14T11:56:26.292Z,25.06
2023-05-14T11:57:29.096Z,25.16
2023-05-14T11:58:32.652Z,25.16
2023-05-14T11:59:36.039Z,25.17
2023-05-14T12:00:39.045Z,25.29
2023-05-14T12:01:40.910Z,25.46
2023-05-14T12:02:43.849Z,25.54
2023-05-14T12:03:45.936Z,25.72
2023-05-14T12:04:53.053Z,25.87
2023-05-14T12:05:56.415Z,26.02
2023-05-14T12:07:00.189Z,26.16
2023-05-14T12:08:01.963Z,26.18
2023-05-14T12:09:05.984Z,26.24
2023-05-14T12:10:08.833Z,26.38
2023-05-14T12:11:11.659Z,26.58
2023-05-14T12:12:13.483Z,26.67
2023-05-14T12:13:17.291Z,26.61
2023-05-14T12:14:20.392Z,26.43
2023-05-14T12:15:23.583Z,26.23
2023-05-14T12:16:30.821Z,26.02
2023-05-14T12:17:33.782Z,25.85
2023-05-14T12:18:35.833Z,25.72
2023-05-14T12:19:41.765Z,25.60
2023-05-14T12:20:48.376Z,25.59
2023-05-14T12:21:52.863Z,25.57
2023-05-14T12:22:55.612Z,25.64
2023-05-14T12:23:59.209Z,25.72
2023-05-14T12:25:01.973Z,25.77
2023-05-14T12:26:06.378Z,25.80
2023-05-14T12:27:11.024Z,25.67
2023-05-14T12:28:15.846Z,25.47
2023-05-14T12:29:18.756Z,25.30
2023-05-14T12:30:22.285Z,25.18
2023-05-14T12:31:28.696Z,25.13
2023-05-14T12:32:32.713Z,25.12
2023-05-14T12:33:34.648Z,25.11
2023-05-14T12:34:38.068Z,25.13
2023-05-14T12:35:40.045Z,25.14
2023-05-14T12:36:44.602Z,25.19
2023-05-14T12:37:46.428Z,25.16
2023-05-14T12:38:49.523Z,25.15
2023-05-14T12:39:51.477Z,25.15
2023-05-14T12:40:54.207Z,25.15
2023-05-14T12:41:55.973Z,25.22
2023-05-14T12:42:58.880Z,25.32
2023-05-14T12:44:01.043Z,25.26
2023-05-14T12:45:07.125Z,25.15
2023-05-14T12:46:09.199Z,25.01
2023-05-14T12:47:12.038Z,24.77
2023-05-14T12:48:14.670Z,24.58
2023-05-14T12:49:17.507Z,24.46
2023-05-14T12:50:19.656Z,24.41
2023-05-14T12:51:22.466Z,24.52
2023-05-14T12:52:37.548Z,24.80
2023-05-14T12:53:41.750Z,25.19
2023-05-14T12:54:44.706Z,25.36
2023-05-14T12:55:46.563Z,25.32
2023-05-14T12:56:49.352Z,25.27
2023-05-14T12:57:51.256Z,25.23
2023-05-14T12:58:54.357Z,25.18
2023-05-14T12:59:56.546Z,25.15
2023-05-14T13:00:59.561Z,25.11
2023-05-14T13:02:01.495Z,25.08
2023-05-14T13:03:04.329Z,25.15
2023-05-14T13:04:06.371Z,25.27
2023-05-14T13:05:09.831Z,25.46
2023-05-14T13:06:11.704Z,25.63
2023-05-14T13:07:14.556Z,25.79
2023-05-14T13:08:17.929Z,25.93
2023-05-14T13:09:21.045Z,26.00
2023-05-14T13:10:22.798Z,26.06
2023-05-14T13:11:27.041Z,25.95
2023-05-14T13:12:30.007Z,25.83
2023-05-14T13:13:31.807Z,25.69
2023-05-14T13:14:36.337Z,25.53
2023-05-14T13:15:38.135Z,25.35
2023-05-14T13:16:41.253Z,25.14
2023-05-14T13:17:43.085Z,24.91
2023-05-14T13:18:45.916Z,24.72
2023-05-14T13:19:47.854Z,24.57
2023-05-14T13:20:50.658Z,24.50
2023-05-14T13:21:52.393Z,24.41
2023-05-14T13:22:55.130Z,24.48
2023-05-14T13:23:58.289Z,24.52
2023-05-14T13:25:01.018Z,24.58
2023-05-14T13:26:03.839Z,24.69
2023-05-14T13:27:05.775Z,24.81
2023-05-14T13:28:09.530Z,24.96
2023-05-14T13:29:11.476Z,25.00
2023-05-14T13:30:14.576Z,24.92
2023-05-14T13:31:16.409Z,24.81
2023-05-14T13:32:19.174Z,24.70
2023-05-14T13:33:23.832Z,24.66
2023-05-14T13:34:26.618Z,24.66
2023-05-14T13:35:28.552Z,24.63
2023-05-14T13:36:32.236Z,24.66
2023-05-14T13:37:34.136Z,24.71
2023-05-14T13:38:37.019Z,24.73
2023-05-14T13:39:42.127Z,24.76
2023-05-14T13:40:44.891Z,24.77
2023-05-14T13:41:46.625Z,24.77
2023-05-14T13:42:49.430Z,24.81
2023-05-14T13:43:52.142Z,24.73
2023-05-14T13:44:53.873Z,24.62